createdAt,value
2022-10-19T00:00:47.276Z,13.50
2022-10-19T00:03:14.342Z,13.40
2022-10-19T00:05:41.243Z,13.40
2022-10-19T00:08:08.075Z,13.40
2022-10-19T00:10:34.923Z,13.30
2022-10-19T00:13:01.793Z,13.30
2022-10-19T00:15:28.715Z,13.30
2022-10-19T00:17:55.921Z,13.30
2022-10-19T00:20:22.815Z,13.30
2022-10-19T00:22:50.596Z,13.30
2022-10-19T00:25:17.456Z,13.20
2022-10-19T00:27:44.646Z,13.20
2022-10-19T00:30:11.531Z,13.20
2022-10-19T00:32:38.366Z,13.10
2022-10-19T00:35:05.500Z,13.10
2022-10-19T00:37:32.355Z,13.10
2022-10-19T00:39:59.210Z,13.00
2022-10-19T00:42:26.146Z,12.90
2022-10-19T00:45:00.079Z,12.90
2022-10-19T00:47:27.244Z,12.80
2022-10-19T00:49:54.158Z,12.80
2022-10-19T00:52:21.823Z,12.70
2022-10-19T00:54:48.746Z,12.70
2022-10-19T00:57:15.651Z,12.70
2022-10-19T00:59:43.093Z,12.70
2022-10-19T01:02:10.134Z,12.70
2022-10-19T01:04:37.983Z,12.70
2022-10-19T01:07:04.952Z,12.70
2022-10-19T01:09:31.751Z,12.70
2022-10-19T01:12:04.208Z,12.70
2022-10-19T01:14:38.351Z,12.60
2022-10-19T01:17:24.027Z,12.70
2022-10-19T01:20:09.507Z,12.60
2022-10-19T01:22:45.471Z,12.60
2022-10-19T01:25:31.006Z,12.60
2022-10-19T01:28:16.136Z,12.60
2022-10-19T01:30:46.155Z,12.50
2022-10-19T01:33:22.098Z,12.50
2022-10-19T01:35:49.034Z,12.50
2022-10-19T01:38:23.910Z,12.50
2022-10-19T01:41:02.831Z,12.50
2022-10-19T01:43:29.737Z,12.40
2022-10-19T01:46:05.801Z,12.40
2022-10-19T01:48:33.773Z,12.40
2022-10-19T01:51:01.742Z,12.40
2022-10-19T01:53:29.912Z,12.40
2022-10-19T01:55:56.960Z,12.40
2022-10-19T01:58:25.285Z,12.30
2022-10-19T02:00:52.603Z,12.20
2022-10-19T02:03:19.570Z,12.20
2022-10-19T02:05:46.438Z,12.20
2022-10-19T02:08:20.911Z,12.10
2022-10-19T02:10:47.808Z,12.10
2022-10-19T02:13:14.897Z,12.10
2022-10-19T02:15:43.177Z,12.00
2022-10-19T02:18:10.023Z,12.00
2022-10-19T02:20:37.377Z,12.00
2022-10-19T02:23:04.995Z,12.00
2022-10-19T02:25:32.297Z,12.00
2022-10-19T02:27:59.089Z,12.00
2022-10-19T02:30:25.977Z,12.00
2022-10-19T02:32:52.828Z,12.00
2022-10-19T02:35:19.697Z,11.90
2022-10-19T02:37:46.530Z,11.90
2022-10-19T02:40:13.550Z,11.90
2022-10-19T02:42:42.016Z,11.90
2022-10-19T02:45:10.620Z,11.90
2022-10-19T02:47:38.850Z,11.80
2022-10-19T02:50:06.047Z,11.80
2022-10-19T02:52:32.903Z,11.80
2022-10-19T02:54:59.736Z,11.80
2022-10-19T02:57:26.627Z,11.80
2022-10-19T02:59:53.524Z,11.80
2022-10-19T03:02:20.501Z,11.80
2022-10-19T03:07:14.976Z,11.70
2022-10-19T03:09:42.163Z,11.70
2022-10-19T03:12:09.088Z,11.60
2022-10-19T03:14:35.907Z,11.60
2022-10-19T03:17:02.966Z,11.50
2022-10-19T03:19:29.821Z,11.50
2022-10-19T03:21:56.578Z,11.40
2022-10-19T03:24:23.426Z,11.40
2022-10-19T03:26:50.435Z,11.40
2022-10-19T03:29:17.292Z,11.40
2022-10-19T03:31:44.173Z,11.40
2022-10-19T03:34:11.066Z,11.40
2022-10-19T03:36:38.468Z,11.40
2022-10-19T03:39:06.185Z,11.40
2022-10-19T03:41:33.686Z,11.40
2022-10-19T03:46:32.566Z,11.40
2022-10-19T03:48:59.398Z,11.40
2022-10-19T03:51:26.962Z,11.40
2022-10-19T03:53:54.520Z,11.40
2022-10-19T03:56:22.182Z,11.40
2022-10-19T03:58:49.756Z,11.40
2022-10-19T04:01:17.436Z,11.30
2022-10-19T04:03:44.354Z,11.30
2022-10-19T04:06:18.210Z,11.40
2022-10-19T04:08:48.373Z,11.40
2022-10-19T04:11:15.452Z,11.40
2022-10-19T04:13:42.367Z,11.40
2022-10-19T04:16:09.708Z,11.40
2022-10-19T04:18:36.469Z,11.40
2022-10-19T04:21:03.845Z,11.40
2022-10-19T04:23:35.279Z,11.40
2022-10-19T04:26:06.234Z,11.40
2022-10-19T04:28:33.514Z,11.40
2022-10-19T04:31:06.567Z,11.40
2022-10-19T04:33:33.762Z,11.40
2022-10-19T04:36:01.177Z,11.40
2022-10-19T04:38:28.599Z,11.40
2022-10-19T04:40:56.224Z,11.40
2022-10-19T04:43:23.078Z,11.40
2022-10-19T04:45:49.863Z,11.40
2022-10-19T04:48:16.725Z,11.40
2022-10-19T04:50:43.548Z,11.40
2022-10-19T04:53:20.023Z,11.40
2022-10-19T04:55:46.964Z,11.30
2022-10-19T04:58:13.859Z,11.30
2022-10-19T05:00:40.747Z,11.40
2022-10-19T05:03:07.707Z,11.30
2022-10-19T05:05:34.657Z,11.30
2022-10-19T05:08:01.637Z,11.30
2022-10-19T05:10:28.542Z,11.40
2022-10-19T05:12:55.552Z,11.30
2022-10-19T05:15:22.956Z,11.30
2022-10-19T05:17:49.890Z,11.30
2022-10-19T05:20:16.714Z,11.30
2022-10-19T05:22:43.678Z,11.30
2022-10-19T05:25:10.455Z,11.30
2022-10-19T05:27:37.502Z,11.30
2022-10-19T05:30:04.925Z,11.30
2022-10-19T05:32:31.793Z,11.30
2022-10-19T05:34:58.624Z,11.30
2022-10-19T05:37:26.022Z,11.40
2022-10-19T05:39:54.358Z,11.40
2022-10-19T05:42:21.214Z,11.40
2022-10-19T05:44:48.131Z,11.40
2022-10-19T05:47:15.079Z,11.40
2022-10-19T05:49:41.917Z,11.30
2022-10-19T05:52:08.772Z,11.40
2022-10-19T05:54:36.636Z,11.40
2022-10-19T05:57:03.638Z,11.40
2022-10-19T05:59:30.622Z,11.40
2022-10-19T06:01:57.508Z,11.40
2022-10-19T06:04:24.512Z,11.40
2022-10-19T06:06:51.373Z,11.50
2022-10-19T06:09:18.306Z,11.50
2022-10-19T06:11:45.149Z,11.50
2022-10-19T06:14:12.955Z,11.50
2022-10-19T06:16:39.870Z,11.50
2022-10-19T06:19:06.776Z,11.50
2022-10-19T06:21:33.747Z,11.50
2022-10-19T06:24:02.950Z,11.50
2022-10-19T06:26:30.043Z,11.60
2022-10-19T06:28:59.397Z,11.60
2022-10-19T06:31:35.579Z,11.60
2022-10-19T06:34:02.605Z,11.60
2022-10-19T06:36:29.864Z,11.60
2022-10-19T06:38:56.816Z,11.60
2022-10-19T06:41:23.669Z,11.60
2022-10-19T06:43:50.862Z,11.60
2022-10-19T06:46:20.591Z,11.70
2022-10-19T06:48:51.609Z,11.70
2022-10-19T06:51:18.494Z,11.80
2022-10-19T06:53:45.361Z,11.80
2022-10-19T06:56:12.243Z,11.80
2022-10-19T06:58:39.134Z,11.80
2022-10-19T07:01:07.780Z,11.90
2022-10-19T07:03:34.819Z,11.90
2022-10-19T07:06:02.253Z,12.00
2022-10-19T07:08:29.941Z,12.00
2022-10-19T07:10:57.906Z,12.00
2022-10-19T07:13:24.963Z,12.10
2022-10-19T07:15:56.685Z,12.10
2022-10-19T07:18:23.605Z,12.00
2022-10-19T07:21:00.114Z,12.00
2022-10-19T07:23:27.434Z,12.00
2022-10-19T07:25:55.351Z,12.00
2022-10-19T07:28:22.452Z,12.00
2022-10-19T07:30:49.415Z,12.10
2022-10-19T07:35:48.220Z,12.10
2022-10-19T07:38:15.162Z,12.20
2022-10-19T07:40:44.913Z,12.20
2022-10-19T07:43:14.266Z,12.20
2022-10-19T07:45:41.103Z,12.30
2022-10-19T07:48:07.943Z,12.30
2022-10-19T07:50:34.783Z,12.40
2022-10-19T07:53:03.594Z,12.40
2022-10-19T07:55:30.472Z,12.40
2022-10-19T07:58:01.569Z,12.40
2022-10-19T08:00:28.544Z,12.50
2022-10-19T08:03:19.345Z,12.50
2022-10-19T08:05:42.392Z,12.60
2022-10-19T08:08:09.316Z,12.60
2022-10-19T08:10:36.187Z,12.70
2022-10-19T08:13:03.059Z,12.70
2022-10-19T08:15:30.359Z,12.80
2022-10-19T08:17:57.216Z,12.80
2022-10-19T08:20:24.098Z,12.90
2022-10-19T08:22:55.006Z,12.80
2022-10-19T08:25:24.939Z,12.90
2022-10-19T08:27:52.619Z,12.90
2022-10-19T08:30:19.476Z,13.00
2022-10-19T08:32:46.374Z,13.10
2022-10-19T08:35:13.291Z,13.10
2022-10-19T08:37:44.875Z,13.20
2022-10-19T08:40:22.976Z,13.30
2022-10-19T08:43:02.899Z,13.40
2022-10-19T08:45:29.826Z,13.50
2022-10-19T08:48:00.995Z,13.60
2022-10-19T08:50:31.010Z,13.70
2022-10-19T08:53:01.797Z,13.70
2022-10-19T08:55:32.257Z,13.70
2022-10-19T08:58:04.465Z,13.70
2022-10-19T09:00:35.385Z,13.70
2022-10-19T09:03:05.502Z,13.60
2022-10-19T09:05:35.133Z,13.60
2022-10-19T09:08:02.061Z,13.60
2022-10-19T09:10:29.414Z,13.60
2022-10-19T09:13:00.530Z,13.60
2022-10-19T09:15:36.426Z,13.70
2022-10-19T09:18:03.382Z,13.70
2022-10-19T09:20:32.140Z,13.70
2022-10-19T09:23:06.701Z,13.70
2022-10-19T09:25:35.490Z,13.80
2022-10-19T09:28:25.663Z,14.00
2022-10-19T09:30:56.270Z,14.30
2022-10-19T09:33:43.399Z,14.50
2022-10-19T09:36:18.326Z,14.70
2022-10-19T09:38:54.515Z,14.90
2022-10-19T09:41:21.564Z,15.10
2022-10-19T09:43:53.737Z,15.20
2022-10-19T09:46:25.052Z,15.30
2022-10-19T09:48:52.311Z,15.50
2022-10-19T09:51:19.358Z,15.60
2022-10-19T09:53:50.435Z,15.90
2022-10-19T09:56:18.372Z,16.10
2022-10-19T09:58:51.454Z,16.30
2022-10-19T10:01:42.996Z,16.50
2022-10-19T10:04:13.750Z,16.40
2022-10-19T10:06:40.566Z,16.40
2022-10-19T10:09:07.443Z,16.30
2022-10-19T10:11:35.891Z,16.30
2022-10-19T10:14:09.941Z,16.60
2022-10-19T10:16:37.060Z,17.00
2022-10-19T10:19:05.793Z,17.00
2022-10-19T10:21:34.746Z,16.70
2022-10-19T10:24:06.075Z,16.30
2022-10-19T10:26:38.252Z,16.00
2022-10-19T10:29:06.478Z,15.80
2022-10-19T10:31:33.276Z,15.60
2022-10-19T10:34:12.281Z,15.50
2022-10-19T10:36:51.211Z,15.50
2022-10-19T10:39:18.043Z,15.40
2022-10-19T10:41:45.083Z,15.40
2022-10-19T10:44:17.488Z,15.40
2022-10-19T10:46:53.327Z,15.40
2022-10-19T10:49:21.629Z,15.30
2022-10-19T10:51:52.216Z,15.20
2022-10-19T10:54:21.237Z,15.00
2022-10-19T10:57:06.289Z,14.90
2022-10-19T10:59:35.308Z,14.80
2022-10-19T11:02:03.712Z,14.70
2022-10-19T11:04:32.528Z,14.60
2022-10-19T11:07:00.313Z,14.50
2022-10-19T11:09:36.808Z,14.50
2022-10-19T11:12:04.517Z,14.50
2022-10-19T11:14:43.446Z,14.50
2022-10-19T11:17:23.036Z,14.50
2022-10-19T11:19:51.418Z,14.50
2022-10-19T11:22:28.496Z,14.60
2022-10-19T11:25:14.083Z,14.70
2022-10-19T11:27:43.955Z,14.60
2022-10-19T11:30:12.576Z,14.70
2022-10-19T11:32:39.463Z,14.70
2022-10-19T11:35:09.138Z,14.80
2022-10-19T11:37:49.448Z,14.80
2022-10-19T11:40:23.464Z,14.90
2022-10-19T11:42:57.470Z,14.90
2022-10-19T11:45:24.357Z,14.90
2022-10-19T11:48:10.097Z,14.90
2022-10-19T11:50:54.102Z,14.90
2022-10-19T11:53:31.029Z,14.80
2022-10-19T11:56:01.025Z,14.70
2022-10-19T11:58:36.893Z,14.70
2022-10-19T12:01:08.304Z,14.70
2022-10-19T12:03:37.999Z,14.60
2022-10-19T12:06:11.935Z,14.50
2022-10-19T12:08:55.384Z,14.50
2022-10-19T12:11:41.681Z,14.40
2022-10-19T12:14:14.098Z,14.40
2022-10-19T12:16:44.571Z,14.50
2022-10-19T12:19:21.732Z,14.70
2022-10-19T12:21:48.694Z,15.10
2022-10-19T12:24:17.241Z,15.60
2022-10-19T12:26:44.110Z,16.00
2022-10-19T12:29:15.351Z,16.20
2022-10-19T12:31:42.298Z,16.20
2022-10-19T12:34:13.391Z,16.20
2022-10-19T12:36:49.212Z,16.10
2022-10-19T12:39:18.760Z,16.20
2022-10-19T12:41:52.147Z,16.30
2022-10-19T12:44:38.068Z,16.20
2022-10-19T12:47:11.605Z,16.20
2022-10-19T12:49:44.366Z,16.30
2022-10-19T12:52:11.208Z,16.50
2022-10-19T12:54:38.364Z,16.70
2022-10-19T12:57:22.687Z,17.00
2022-10-19T12:59:57.855Z,17.20
2022-10-19T13:02:25.706Z,17.60
2022-10-19T13:04:52.764Z,17.80
2022-10-19T13:07:19.609Z,17.90
2022-10-19T13:09:46.855Z,17.90
2022-10-19T13:12:21.632Z,18.20
2022-10-19T13:14:53.305Z,18.30
2022-10-19T13:17:40.793Z,18.20
2022-10-19T13:20:13.532Z,18.00
2022-10-19T13:22:49.415Z,17.70
2022-10-19T13:25:16.264Z,17.40
2022-10-19T13:27:43.923Z,17.20
2022-10-19T13:30:29.414Z,17.00
2022-10-19T13:32:56.263Z,17.10
2022-10-19T13:35:23.304Z,17.40
2022-10-19T13:38:08.979Z,17.40
2022-10-19T13:40:36.538Z,17.20
2022-10-19T13:43:03.392Z,17.00
2022-10-19T13:45:30.250Z,16.90
2022-10-19T13:48:02.809Z,16.80
2022-10-19T13:50:47.585Z,16.60
2022-10-19T13:53:17.422Z,16.50
2022-10-19T13:55:56.319Z,16.40
2022-10-19T13:58:41.733Z,16.30
2022-10-19T14:01:15.035Z,16.20
2022-10-19T14:03:51.468Z,16.00
2022-10-19T14:06:36.678Z,15.90
2022-10-19T14:09:09.500Z,15.80
2022-10-19T14:11:46.273Z,15.80
2022-10-19T14:14:19.267Z,15.70
2022-10-19T14:16:47.882Z,15.60
2022-10-19T14:19:15.013Z,15.50
2022-10-19T14:21:41.942Z,15.40
2022-10-19T14:24:21.799Z,15.30
2022-10-19T14:26:48.719Z,15.20
2022-10-19T14:29:15.685Z,15.10
2022-10-19T14:31:42.588Z,15.00
2022-10-19T14:34:09.600Z,15.00
2022-10-19T14:36:37.372Z,14.90
2022-10-19T14:39:04.337Z,14.80
2022-10-19T14:41:32.798Z,14.70
2022-10-19T14:44:00.021Z,14.60
2022-10-19T14:46:28.807Z,14.50
2022-10-19T14:48:59.155Z,14.50
2022-10-19T14:51:45.338Z,14.50
2022-10-19T14:54:20.675Z,14.40
2022-10-19T14:56:50.591Z,14.30
2022-10-19T14:59:25.147Z,14.30
2022-10-19T15:01:52.853Z,14.30
2022-10-19T15:04:20.904Z,14.20
2022-10-19T15:06:47.721Z,14.20
2022-10-19T15:09:30.273Z,14.20
2022-10-19T15:12:06.393Z,14.10
2022-10-19T15:14:33.410Z,14.10
2022-10-19T15:17:03.429Z,14.00
2022-10-19T15:19:30.292Z,14.00
2022-10-19T15:22:06.636Z,14.00
2022-10-19T15:24:33.484Z,13.90
2022-10-19T15:27:09.526Z,13.90
2022-10-19T15:29:36.588Z,13.90
2022-10-19T15:32:12.976Z,13.80
2022-10-19T15:34:39.799Z,13.80
2022-10-19T15:37:08.374Z,13.80
2022-10-19T15:39:40.126Z,13.70
2022-10-19T15:42:32.157Z,13.70
2022-10-19T15:45:00.777Z,13.60
2022-10-19T15:47:27.582Z,13.60
2022-10-19T15:49:55.902Z,13.50
2022-10-19T15:52:23.438Z,13.50
2022-10-19T15:54:50.856Z,13.40
2022-10-19T15:57:30.095Z,13.30
2022-10-19T15:59:57.392Z,13.30
2022-10-19T16:02:25.312Z,13.20
2022-10-19T16:04:53.116Z,13.20
2022-10-19T16:07:23.705Z,13.10
2022-10-19T16:09:50.671Z,13.10
2022-10-19T16:12:17.551Z,13.00
2022-10-19T16:14:44.374Z,13.00
2022-10-19T16:17:13.147Z,12.90
2022-10-19T16:19:40.014Z,12.80
2022-10-19T16:22:06.937Z,12.80
2022-10-19T16:24:33.905Z,12.70
2022-10-19T16:27:00.799Z,12.70
2022-10-19T16:29:28.978Z,12.60
2022-10-19T16:31:56.074Z,12.50
2022-10-19T16:34:22.921Z,12.40
2022-10-19T16:36:49.839Z,12.30
2022-10-19T16:39:16.849Z,12.30
2022-10-19T16:41:43.917Z,12.20
2022-10-19T16:44:11.409Z,12.10
2022-10-19T16:46:38.253Z,12.10
2022-10-19T16:49:05.196Z,12.00
2022-10-19T16:51:36.206Z,12.00
2022-10-19T16:54:03.217Z,11.90
2022-10-19T16:56:30.358Z,11.80
2022-10-19T16:58:58.323Z,11.80
2022-10-19T17:01:25.455Z,11.80
2022-10-19T17:03:54.169Z,11.70
2022-10-19T17:06:21.189Z,11.70
2022-10-19T17:11:35.614Z,11.50
2022-10-19T17:14:03.560Z,11.50
2022-10-19T17:16:31.011Z,11.50
2022-10-19T17:18:58.305Z,11.40
2022-10-19T17:21:26.116Z,11.40
2022-10-19T17:23:53.718Z,11.30
2022-10-19T17:26:36.805Z,11.30
2022-10-19T17:29:03.705Z,11.20
2022-10-19T17:31:30.715Z,11.20
2022-10-19T17:33:57.695Z,11.10
2022-10-19T17:36:26.380Z,11.10
2022-10-19T17:38:53.779Z,11.10
2022-10-19T17:41:22.157Z,11.00
2022-10-19T17:43:51.720Z,11.00
2022-10-19T17:46:19.355Z,10.90
2022-10-19T17:48:46.332Z,10.90
2022-10-19T17:51:14.147Z,10.90
2022-10-19T17:53:41.033Z,10.90
2022-10-19T17:56:07.952Z,10.80
2022-10-19T17:58:37.697Z,10.80
2022-10-19T18:01:06.838Z,10.70
2022-10-19T18:03:34.127Z,10.80
2022-10-19T18:06:06.913Z,10.70
2022-10-19T18:08:38.724Z,10.70
2022-10-19T18:11:07.047Z,10.70
2022-10-19T18:13:34.115Z,10.70
2022-10-19T18:16:05.093Z,10.70
2022-10-19T18:18:32.353Z,10.70
2022-10-19T18:20:59.346Z,10.60
2022-10-19T18:23:26.271Z,10.50
2022-10-19T18:25:54.505Z,10.50
2022-10-19T18:28:21.589Z,10.50
2022-10-19T18:30:48.529Z,10.50
2022-10-19T18:33:15.624Z,10.50
2022-10-19T18:35:42.509Z,10.50
2022-10-19T18:38:09.408Z,10.40
2022-10-19T18:40:36.913Z,10.40
2022-10-19T18:43:04.407Z,10.30
2022-10-19T18:45:31.599Z,10.30
2022-10-19T18:47:58.472Z,10.30
2022-10-19T18:50:25.306Z,10.30
2022-10-19T18:52:52.154Z,10.30
2022-10-19T18:55:19.109Z,10.20
2022-10-19T18:57:45.938Z,10.20
2022-10-19T19:00:13.046Z,10.20
2022-10-19T19:02:46.702Z,10.20
2022-10-19T19:05:13.969Z,10.20
2022-10-19T19:07:40.949Z,10.10
2022-10-19T19:10:08.036Z,10.10
2022-10-19T19:12:35.102Z,10.00
2022-10-19T19:15:02.101Z,10.00
2022-10-19T19:17:28.977Z,10.00
2022-10-19T19:19:55.826Z,10.00
2022-10-19T19:22:26.178Z,9.90
2022-10-19T19:24:53.352Z,9.90
2022-10-19T19:27:22.862Z,9.90
2022-10-19T19:29:50.155Z,9.80
2022-10-19T19:32:17.265Z,9.80
2022-10-19T19:34:44.150Z,9.70
2022-10-19T19:37:11.386Z,9.70
2022-10-19T19:39:38.389Z,9.70
2022-10-19T19:42:05.305Z,9.60
2022-10-19T19:44:32.138Z,9.60
2022-10-19T19:46:59.554Z,9.60
2022-10-19T19:49:26.545Z,9.50
2022-10-19T19:51:53.584Z,9.60
2022-10-19T19:54:20.867Z,9.60
2022-10-19T19:56:53.781Z,9.50
2022-10-19T19:59:20.667Z,9.50
2022-10-19T20:01:47.609Z,9.50
2022-10-19T20:04:14.647Z,9.50
2022-10-19T20:06:41.662Z,9.40
2022-10-19T20:09:08.730Z,9.40
2022-10-19T20:11:38.427Z,9.40
2022-10-19T20:14:06.656Z,9.40
2022-10-19T20:16:34.377Z,9.40
2022-10-19T20:19:19.499Z,9.40
2022-10-19T20:21:46.331Z,9.40
2022-10-19T20:24:13.293Z,9.30
2022-10-19T20:26:40.142Z,9.30
2022-10-19T20:29:07.061Z,9.30
2022-10-19T20:31:39.434Z,9.20
2022-10-19T20:34:07.501Z,9.20
2022-10-19T20:36:34.658Z,9.20
2022-10-19T20:39:01.509Z,9.20
2022-10-19T20:41:28.522Z,9.20
2022-10-19T20:43:55.398Z,9.10
2022-10-19T20:46:22.999Z,9.10
2022-10-19T20:48:50.202Z,9.10
2022-10-19T20:51:18.122Z,9.00
2022-10-19T20:53:46.450Z,9.10
2022-10-19T20:56:14.067Z,9.00
2022-10-19T20:58:43.311Z,9.00
2022-10-19T21:01:19.148Z,8.90
2022-10-19T21:03:46.724Z,8.90
2022-10-19T21:06:13.620Z,8.80
2022-10-19T21:08:40.615Z,8.80
2022-10-19T21:11:14.217Z,8.80
2022-10-19T21:13:41.082Z,8.70
2022-10-19T21:16:11.384Z,8.70
2022-10-19T21:18:38.309Z,8.70
2022-10-19T21:21:11.326Z,8.60
2022-10-19T21:23:38.360Z,8.70
2022-10-19T21:26:05.249Z,8.60
2022-10-19T21:28:32.156Z,8.60
2022-10-19T21:31:02.798Z,8.60
2022-10-19T21:33:29.732Z,8.60
2022-10-19T21:35:56.552Z,8.50
2022-10-19T21:38:23.474Z,8.50
2022-10-19T21:40:50.314Z,8.50
2022-10-19T21:43:17.270Z,8.50
2022-10-19T21:45:44.047Z,8.50
2022-10-19T21:48:10.942Z,8.50
2022-10-19T21:50:37.816Z,8.40
2022-10-19T21:53:04.636Z,8.40
2022-10-19T21:55:34.701Z,8.40
2022-10-19T21:58:02.973Z,8.40
2022-10-19T22:00:29.876Z,8.40
2022-10-19T22:02:56.762Z,8.30
2022-10-19T22:05:23.652Z,8.40
2022-10-19T22:07:50.555Z,8.30
2022-10-19T22:10:17.479Z,8.30
2022-10-19T22:12:44.370Z,8.30
2022-10-19T22:15:11.289Z,8.30
2022-10-19T22:17:38.331Z,8.20
2022-10-19T22:20:05.447Z,8.30
2022-10-19T22:22:32.519Z,8.30
2022-10-19T22:24:59.476Z,8.30
2022-10-19T22:27:26.440Z,8.20
2022-10-19T22:29:53.292Z,8.20
2022-10-19T22:32:20.320Z,8.30
2022-10-19T22:34:47.118Z,8.20
2022-10-19T22:37:14.005Z,8.20
2022-10-19T22:42:08.693Z,8.10
2022-10-19T22:44:35.608Z,8.10
2022-10-19T22:47:02.524Z,8.10
2022-10-19T22:49:29.357Z,8.10
2022-10-19T22:51:56.192Z,8.10
2022-10-19T22:54:23.039Z,8.00
2022-10-19T22:56:49.928Z,8.00
2022-10-19T22:59:16.825Z,8.00
2022-10-19T23:01:43.690Z,8.00
2022-10-19T23:04:10.626Z,8.00
2022-10-19T23:06:37.454Z,8.00
2022-10-19T23:09:04.329Z,7.90
2022-10-19T23:11:31.345Z,7.90
2022-10-19T23:13:58.189Z,7.90
2022-10-19T23:16:25.137Z,7.90
2022-10-19T23:18:52.082Z,7.90
2022-10-19T23:21:18.917Z,7.80
2022-10-19T23:23:45.783Z,7.80
2022-10-19T23:26:13.459Z,7.80
2022-10-19T23:28:40.910Z,7.80
2022-10-19T23:31:12.044Z,7.70
2022-10-19T23:33:38.973Z,7.70
2022-10-19T23:36:06.986Z,7.70
2022-10-19T23:38:34.111Z,7.70
2022-10-19T23:41:01.019Z,7.70
2022-10-19T23:43:28.075Z,7.60
2022-10-19T23:45:54.978Z,7.60
2022-10-19T23:48:21.878Z,7.60
2022-10-19T23:51:08.996Z,7.60
2022-10-19T23:53:39.975Z,7.50
2022-10-19T23:56:14.357Z,7.50
2022-10-19T23:58:41.257Z,7.40
